sensor_id;sensor_type;location;lat;lon;timestamp;P1;durP1;ratioP1;P2;durP2;ratioP2
46391;SDS011;32098;49.448;7.904;2023-09-19T00:00:43;2.72;;;1.65;;
46391;SDS011;32098;49.448;7.904;2023-09-19T00:03:14;3.40;;;1.52;;
46391;SDS011;32098;49.448;7.904;2023-09-19T00:05:41;2.55;;;1.38;;
46391;SDS011;32098;49.448;7.904;2023-09-19T00:08:12;3.60;;;1.63;;
46391;SDS011;32098;49.448;7.904;2023-09-19T00:10:42;2.97;;;2.00;;
46391;SDS011;32098;49.448;7.904;2023-09-19T00:13:09;2.33;;;1.90;;
46391;SDS011;32098;49.448;7.904;2023-09-19T00:15:44;3.15;;;1.80;;
46391;SDS011;32098;49.448;7.904;2023-09-19T00:18:17;3.33;;;1.90;;
46391;SDS011;32098;49.448;7.904;2023-09-19T00:20:47;2.97;;;1.58;;
46391;SDS011;32098;49.448;7.904;2023-09-19T00:23:18;2.75;;;1.80;;
46391;SDS011;32098;49.448;7.904;2023-09-19T00:25:46;1.95;;;1.77;;
46391;SDS011;32098;49.448;7.904;2023-09-19T00:28:12;2.08;;;1.88;;
46391;SDS011;32098;49.448;7.904;2023-09-19T00:30:39;4.72;;;2.00;;
46391;SDS011;32098;49.448;7.904;2023-09-19T00:33:09;3.28;;;1.90;;
46391;SDS011;32098;49.448;7.904;2023-09-19T00:35:37;2.78;;;1.77;;
46391;SDS011;32098;49.448;7.904;2023-09-19T00:38:04;3.97;;;1.90;;
46391;SDS011;32098;49.448;7.904;2023-09-19T00:40:33;4.55;;;2.13;;
46391;SDS011;32098;49.448;7.904;2023-09-19T00:42:59;3.15;;;2.00;;
46391;SDS011;32098;49.448;7.904;2023-09-19T00:45:26;5.43;;;2.10;;
46391;SDS011;32098;49.448;7.904;2023-09-19T00:47:54;2.60;;;1.95;;
46391;SDS011;32098;49.448;7.904;2023-09-19T00:50:22;3.88;;;2.17;;
46391;SDS011;32098;49.448;7.904;2023-09-19T00:52:52;3.70;;;2.63;;
46391;SDS011;32098;49.448;7.904;2023-09-19T00:55:22;5.13;;;2.30;;
46391;SDS011;32098;49.448;7.904;2023-09-19T00:57:50;4.05;;;2.00;;
46391;SDS011;32098;49.448;7.904;2023-09-19T01:00:19;3.95;;;2.03;;
46391;SDS011;32098;49.448;7.904;2023-09-19T01:02:47;4.35;;;1.88;;
46391;SDS011;32098;49.448;7.904;2023-09-19T01:05:14;5.13;;;2.42;;
46391;SDS011;32098;49.448;7.904;2023-09-19T01:07:41;4.72;;;2.20;;
46391;SDS011;32098;49.448;7.904;2023-09-19T01:10:09;6.53;;;2.17;;
46391;SDS011;32098;49.448;7.904;2023-09-19T01:15:26;4.32;;;2.00;;
46391;SDS011;32098;49.448;7.904;2023-09-19T01:20:45;3.60;;;1.88;;
46391;SDS011;32098;49.448;7.904;2023-09-19T01:23:46;3.40;;;1.73;;
46391;SDS011;32098;49.448;7.904;2023-09-19T01:26:49;2.78;;;1.83;;
46391;SDS011;32098;49.448;7.904;2023-09-19T01:29:38;1.70;;;1.60;;
46391;SDS011;32098;49.448;7.904;2023-09-19T01:32:10;4.88;;;1.90;;
46391;SDS011;32098;49.448;7.904;2023-09-19T01:34:56;5.13;;;2.28;;
46391;SDS011;32098;49.448;7.904;2023-09-19T01:37:25;3.28;;;2.25;;
46391;SDS011;32098;49.448;7.904;2023-09-19T01:39:54;2.45;;;1.75;;
46391;SDS011;32098;49.448;7.904;2023-09-19T01:46:30;3.22;;;1.88;;
46391;SDS011;32098;49.448;7.904;2023-09-19T01:54:30;3.58;;;1.80;;
46391;SDS011;32098;49.448;7.904;2023-09-19T01:57:05;2.83;;;2.00;;
46391;SDS011;32098;49.448;7.904;2023-09-19T01:59:43;3.22;;;1.88;;
46391;SDS011;32098;49.448;7.904;2023-09-19T02:02:15;2.70;;;2.20;;
46391;SDS011;32098;49.448;7.904;2023-09-19T02:04:44;3.05;;;2.20;;
46391;SDS011;32098;49.448;7.904;2023-09-19T02:07:10;4.10;;;2.17;;
46391;SDS011;32098;49.448;7.904;2023-09-19T02:09:37;4.13;;;2.42;;
46391;SDS011;32098;49.448;7.904;2023-09-19T02:12:05;3.25;;;2.55;;
46391;SDS011;32098;49.448;7.904;2023-09-19T02:14:32;2.95;;;2.38;;
46391;SDS011;32098;49.448;7.904;2023-09-19T02:16:59;3.60;;;2.35;;
46391;SDS011;32098;49.448;7.904;2023-09-19T02:19:26;2.83;;;2.50;;
46391;SDS011;32098;49.448;7.904;2023-09-19T02:21:53;4.13;;;2.70;;
46391;SDS011;32098;49.448;7.904;2023-09-19T02:24:20;3.72;;;2.90;;
46391;SDS011;32098;49.448;7.904;2023-09-19T02:26:47;4.97;;;2.80;;
46391;SDS011;32098;49.448;7.904;2023-09-19T02:29:13;6.55;;;2.70;;
46391;SDS011;32098;49.448;7.904;2023-09-19T02:31:41;4.97;;;3.10;;
46391;SDS011;32098;49.448;7.904;2023-09-19T02:34:08;3.85;;;2.90;;
46391;SDS011;32098;49.448;7.904;2023-09-19T02:36:35;4.63;;;3.30;;
46391;SDS011;32098;49.448;7.904;2023-09-19T02:39:02;5.22;;;3.53;;
46391;SDS011;32098;49.448;7.904;2023-09-19T02:41:31;6.63;;;3.60;;
46391;SDS011;32098;49.448;7.904;2023-09-19T02:43:59;6.13;;;4.00;;
46391;SDS011;32098;49.448;7.904;2023-09-19T02:46:26;4.80;;;3.85;;
46391;SDS011;32098;49.448;7.904;2023-09-19T02:48:53;5.22;;;3.80;;
46391;SDS011;32098;49.448;7.904;2023-09-19T02:51:21;6.75;;;4.03;;
46391;SDS011;32098;49.448;7.904;2023-09-19T02:53:47;7.10;;;4.18;;
46391;SDS011;32098;49.448;7.904;2023-09-19T02:56:14;6.80;;;3.97;;
46391;SDS011;32098;49.448;7.904;2023-09-19T02:58:42;6.50;;;4.18;;
46391;SDS011;32098;49.448;7.904;2023-09-19T03:01:12;5.28;;;3.92;;
46391;SDS011;32098;49.448;7.904;2023-09-19T03:03:39;4.75;;;3.63;;
46391;SDS011;32098;49.448;7.904;2023-09-19T03:06:08;6.10;;;3.83;;
46391;SDS011;32098;49.448;7.904;2023-09-19T03:08:35;7.28;;;3.83;;
46391;SDS011;32098;49.448;7.904;2023-09-19T03:11:03;4.90;;;3.28;;
46391;SDS011;32098;49.448;7.904;2023-09-19T03:13:32;5.57;;;3.30;;
46391;SDS011;32098;49.448;7.904;2023-09-19T03:15:59;5.05;;;3.05;;
46391;SDS011;32098;49.448;7.904;2023-09-19T03:18:28;4.43;;;3.40;;
46391;SDS011;32098;49.448;7.904;2023-09-19T03:20:57;5.13;;;3.80;;
46391;SDS011;32098;49.448;7.904;2023-09-19T03:23:28;4.53;;;3.60;;
46391;SDS011;32098;49.448;7.904;2023-09-19T03:25:55;7.75;;;3.60;;
46391;SDS011;32098;49.448;7.904;2023-09-19T03:28:22;4.35;;;3.33;;
46391;SDS011;32098;49.448;7.904;2023-09-19T03:31:03;6.07;;;3.55;;
46391;SDS011;32098;49.448;7.904;2023-09-19T03:33:33;5.35;;;3.42;;
46391;SDS011;32098;49.448;7.904;2023-09-19T03:36:01;5.88;;;3.63;;
46391;SDS011;32098;49.448;7.904;2023-09-19T03:38:33;7.32;;;3.92;;
46391;SDS011;32098;49.448;7.904;2023-09-19T03:41:01;7.05;;;3.53;;
46391;SDS011;32098;49.448;7.904;2023-09-19T03:43:28;4.55;;;3.53;;
46391;SDS011;32098;49.448;7.904;2023-09-19T03:45:55;6.93;;;3.63;;
46391;SDS011;32098;49.448;7.904;2023-09-19T03:48:22;4.60;;;3.67;;
46391;SDS011;32098;49.448;7.904;2023-09-19T03:50:50;5.22;;;3.30;;
46391;SDS011;32098;49.448;7.904;2023-09-19T03:53:18;8.23;;;3.60;;
46391;SDS011;32098;49.448;7.904;2023-09-19T03:55:45;5.28;;;3.72;;
46391;SDS011;32098;49.448;7.904;2023-09-19T03:58:13;8.73;;;3.50;;
46391;SDS011;32098;49.448;7.904;2023-09-19T04:00:40;5.13;;;3.28;;
46391;SDS011;32098;49.448;7.904;2023-09-19T04:03:07;7.57;;;3.25;;
46391;SDS011;32098;49.448;7.904;2023-09-19T04:05:34;3.47;;;2.58;;
46391;SDS011;32098;49.448;7.904;2023-09-19T04:08:01;6.50;;;3.03;;
46391;SDS011;32098;49.448;7.904;2023-09-19T04:10:27;6.20;;;2.72;;
46391;SDS011;32098;49.448;7.904;2023-09-19T04:12:55;6.90;;;2.70;;
46391;SDS011;32098;49.448;7.904;2023-09-19T04:15:23;5.95;;;2.75;;
46391;SDS011;32098;49.448;7.904;2023-09-19T04:17:52;6.32;;;2.70;;
46391;SDS011;32098;49.448;7.904;2023-09-19T04:20:19;5.78;;;2.67;;
46391;SDS011;32098;49.448;7.904;2023-09-19T04:22:46;3.97;;;2.28;;
46391;SDS011;32098;49.448;7.904;2023-09-19T04:25:13;5.13;;;2.72;;
46391;SDS011;32098;49.448;7.904;2023-09-19T04:27:40;5.53;;;2.53;;
46391;SDS011;32098;49.448;7.904;2023-09-19T04:30:10;5.30;;;2.70;;
46391;SDS011;32098;49.448;7.904;2023-09-19T04:32:38;5.38;;;2.28;;
46391;SDS011;32098;49.448;7.904;2023-09-19T04:35:09;7.25;;;2.83;;
46391;SDS011;32098;49.448;7.904;2023-09-19T04:37:37;4.30;;;2.10;;
46391;SDS011;32098;49.448;7.904;2023-09-19T04:40:06;9.45;;;2.67;;
46391;SDS011;32098;49.448;7.904;2023-09-19T04:42:40;7.15;;;2.50;;
46391;SDS011;32098;49.448;7.904;2023-09-19T04:45:07;5.28;;;2.10;;
46391;SDS011;32098;49.448;7.904;2023-09-19T04:47:36;5.63;;;2.60;;
46391;SDS011;32098;49.448;7.904;2023-09-19T04:50:08;6.55;;;2.80;;
46391;SDS011;32098;49.448;7.904;2023-09-19T04:52:42;6.47;;;2.33;;
46391;SDS011;32098;49.448;7.904;2023-09-19T04:55:14;3.45;;;2.03;;
46391;SDS011;32098;49.448;7.904;2023-09-19T04:57:44;5.72;;;1.95;;
46391;SDS011;32098;49.448;7.904;2023-09-19T05:00:15;2.97;;;1.90;;
46391;SDS011;32098;49.448;7.904;2023-09-19T05:02:45;6.88;;;2.05;;
46391;SDS011;32098;49.448;7.904;2023-09-19T05:05:15;5.18;;;1.90;;
46391;SDS011;32098;49.448;7.904;2023-09-19T05:07:45;4.13;;;2.13;;
46391;SDS011;32098;49.448;7.904;2023-09-19T05:10:12;4.00;;;1.90;;
46391;SDS011;32098;49.448;7.904;2023-09-19T05:12:40;4.22;;;1.77;;
46391;SDS011;32098;49.448;7.904;2023-09-19T05:15:07;6.85;;;2.00;;
46391;SDS011;32098;49.448;7.904;2023-09-19T05:17:34;5.28;;;1.85;;
46391;SDS011;32098;49.448;7.904;2023-09-19T05:20:02;4.13;;;1.65;;
46391;SDS011;32098;49.448;7.904;2023-09-19T05:22:42;5.25;;;2.20;;
46391;SDS011;32098;49.448;7.904;2023-09-19T05:25:09;5.57;;;2.08;;
46391;SDS011;32098;49.448;7.904;2023-09-19T05:27:37;6.35;;;1.98;;
46391;SDS011;32098;49.448;7.904;2023-09-19T05:30:03;9.23;;;2.08;;
46391;SDS011;32098;49.448;7.904;2023-09-19T05:32:31;3.33;;;1.55;;
46391;SDS011;32098;49.448;7.904;2023-09-19T05:34:57;4.65;;;1.90;;
46391;SDS011;32098;49.448;7.904;2023-09-19T05:37:24;6.55;;;2.17;;
46391;SDS011;32098;49.448;7.904;2023-09-19T05:39:52;5.20;;;2.08;;
46391;SDS011;32098;49.448;7.904;2023-09-19T05:42:21;8.55;;;2.47;;
46391;SDS011;32098;49.448;7.904;2023-09-19T05:44:48;6.95;;;2.30;;
46391;SDS011;32098;49.448;7.904;2023-09-19T05:47:14;5.30;;;2.20;;
46391;SDS011;32098;49.448;7.904;2023-09-19T05:49:41;5.80;;;2.38;;
46391;SDS011;32098;49.448;7.904;2023-09-19T05:52:08;6.47;;;2.35;;
46391;SDS011;32098;49.448;7.904;2023-09-19T05:54:34;5.40;;;2.17;;
46391;SDS011;32098;49.448;7.904;2023-09-19T05:57:01;4.38;;;1.92;;
46391;SDS011;32098;49.448;7.904;2023-09-19T05:59:28;3.53;;;2.22;;
46391;SDS011;32098;49.448;7.904;2023-09-19T06:01:55;5.38;;;2.30;;
46391;SDS011;32098;49.448;7.904;2023-09-19T06:04:22;6.55;;;1.92;;
46391;SDS011;32098;49.448;7.904;2023-09-19T06:06:49;7.68;;;2.30;;
46391;SDS011;32098;49.448;7.904;2023-09-19T06:09:15;3.65;;;1.90;;
46391;SDS011;32098;49.448;7.904;2023-09-19T06:11:42;3.63;;;1.67;;
46391;SDS011;32098;49.448;7.904;2023-09-19T06:14:09;8.23;;;2.10;;
46391;SDS011;32098;49.448;7.904;2023-09-19T06:16:36;7.18;;;2.42;;
46391;SDS011;32098;49.448;7.904;2023-09-19T06:19:04;5.38;;;2.08;;
46391;SDS011;32098;49.448;7.904;2023-09-19T06:21:35;4.65;;;2.08;;
46391;SDS011;32098;49.448;7.904;2023-09-19T06:24:02;6.47;;;2.13;;
46391;SDS011;32098;49.448;7.904;2023-09-19T06:26:29;5.07;;;2.00;;
46391;SDS011;32098;49.448;7.904;2023-09-19T06:28:57;5.53;;;2.17;;
46391;SDS011;32098;49.448;7.904;2023-09-19T06:31:26;6.50;;;2.25;;
46391;SDS011;32098;49.448;7.904;2023-09-19T06:33:52;7.13;;;2.30;;
46391;SDS011;32098;49.448;7.904;2023-09-19T06:36:19;7.10;;;2.42;;
46391;SDS011;32098;49.448;7.904;2023-09-19T06:38:46;2.25;;;1.60;;
46391;SDS011;32098;49.448;7.904;2023-09-19T06:41:13;6.55;;;2.00;;
46391;SDS011;32098;49.448;7.904;2023-09-19T06:43:42;3.25;;;1.70;;
46391;SDS011;32098;49.448;7.904;2023-09-19T06:46:09;4.88;;;2.05;;
46391;SDS011;32098;49.448;7.904;2023-09-19T06:48:36;6.80;;;1.98;;
46391;SDS011;32098;49.448;7.904;2023-09-19T06:51:02;5.43;;;1.90;;
46391;SDS011;32098;49.448;7.904;2023-09-19T06:53:32;3.58;;;1.75;;
46391;SDS011;32098;49.448;7.904;2023-09-19T06:55:58;5.90;;;1.95;;
46391;SDS011;32098;49.448;7.904;2023-09-19T06:58:25;3.60;;;2.13;;
46391;SDS011;32098;49.448;7.904;2023-09-19T07:00:52;3.47;;;1.92;;
46391;SDS011;32098;49.448;7.904;2023-09-19T07:03:20;4.93;;;2.03;;
46391;SDS011;32098;49.448;7.904;2023-09-19T07:05:48;5.40;;;2.13;;
46391;SDS011;32098;49.448;7.904;2023-09-19T07:08:14;5.60;;;2.42;;
46391;SDS011;32098;49.448;7.904;2023-09-19T07:10:41;4.78;;;1.88;;
46391;SDS011;32098;49.448;7.904;2023-09-19T07:13:15;5.70;;;2.22;;
46391;SDS011;32098;49.448;7.904;2023-09-19T07:15:43;4.57;;;2.03;;
46391;SDS011;32098;49.448;7.904;2023-09-19T07:18:14;7.47;;;2.33;;
46391;SDS011;32098;49.448;7.904;2023-09-19T07:20:46;5.93;;;2.60;;
46391;SDS011;32098;49.448;7.904;2023-09-19T07:23:19;5.95;;;2.20;;
46391;SDS011;32098;49.448;7.904;2023-09-19T07:25:47;5.45;;;2.40;;
46391;SDS011;32098;49.448;7.904;2023-09-19T07:28:15;4.70;;;2.00;;
46391;SDS011;32098;49.448;7.904;2023-09-19T07:30:42;4.40;;;1.90;;
46391;SDS011;32098;49.448;7.904;2023-09-19T07:33:09;5.00;;;2.08;;
46391;SDS011;32098;49.448;7.904;2023-09-19T07:35:39;5.05;;;2.22;;
46391;SDS011;32098;49.448;7.904;2023-09-19T07:38:08;3.58;;;2.10;;
46391;SDS011;32098;49.448;7.904;2023-09-19T07:40:37;7.13;;;2.45;;
46391;SDS011;32098;49.448;7.904;2023-09-19T07:43:04;5.43;;;2.55;;
46391;SDS011;32098;49.448;7.904;2023-09-19T07:45:33;4.57;;;2.47;;
46391;SDS011;32098;49.448;7.904;2023-09-19T07:47:59;3.55;;;2.38;;
46391;SDS011;32098;49.448;7.904;2023-09-19T07:50:30;8.45;;;2.95;;
46391;SDS011;32098;49.448;7.904;2023-09-19T07:52:59;4.97;;;2.50;;
46391;SDS011;32098;49.448;7.904;2023-09-19T07:55:27;3.38;;;2.30;;
46391;SDS011;32098;49.448;7.904;2023-09-19T07:57:53;5.32;;;2.63;;
46391;SDS011;32098;49.448;7.904;2023-09-19T08:00:20;3.72;;;2.30;;
46391;SDS011;32098;49.448;7.904;2023-09-19T08:02:47;4.28;;;2.65;;
46391;SDS011;32098;49.448;7.904;2023-09-19T08:05:23;7.50;;;2.50;;
46391;SDS011;32098;49.448;7.904;2023-09-19T08:07:51;4.50;;;2.30;;
46391;SDS011;32098;49.448;7.904;2023-09-19T08:10:19;3.83;;;2.08;;
46391;SDS011;32098;49.448;7.904;2023-09-19T08:12:47;4.97;;;2.10;;
46391;SDS011;32098;49.448;7.904;2023-09-19T08:15:15;3.33;;;1.60;;
46391;SDS011;32098;49.448;7.904;2023-09-19T08:17:43;4.43;;;1.80;;
46391;SDS011;32098;49.448;7.904;2023-09-19T08:20:10;7.78;;;2.30;;
46391;SDS011;32098;49.448;7.904;2023-09-19T08:22:47;6.57;;;2.03;;
46391;SDS011;32098;49.448;7.904;2023-09-19T08:25:15;6.35;;;1.83;;
46391;SDS011;32098;49.448;7.904;2023-09-19T08:27:45;7.35;;;2.78;;
46391;SDS011;32098;49.448;7.904;2023-09-19T08:30:16;5.45;;;2.13;;
46391;SDS011;32098;49.448;7.904;2023-09-19T08:32:44;3.65;;;1.80;;
46391;SDS011;32098;49.448;7.904;2023-09-19T08:35:12;5.65;;;2.08;;
46391;SDS011;32098;49.448;7.904;2023-09-19T08:37:39;6.95;;;1.88;;
46391;SDS011;32098;49.448;7.904;2023-09-19T08:40:06;6.85;;;2.10;;
46391;SDS011;32098;49.448;7.904;2023-09-19T08:42:48;8.98;;;2.00;;
46391;SDS011;32098;49.448;7.904;2023-09-19T08:45:20;6.88;;;1.90;;
46391;SDS011;32098;49.448;7.904;2023-09-19T08:50:49;5.32;;;1.65;;
46391;SDS011;32098;49.448;7.904;2023-09-19T08:53:41;5.40;;;1.70;;
46391;SDS011;32098;49.448;7.904;2023-09-19T08:56:20;6.10;;;2.05;;
46391;SDS011;32098;49.448;7.904;2023-09-19T08:58:59;6.95;;;1.77;;
46391;SDS011;32098;49.448;7.904;2023-09-19T09:01:28;8.98;;;1.52;;
46391;SDS011;32098;49.448;7.904;2023-09-19T09:03:55;7.57;;;1.92;;
46391;SDS011;32098;49.448;7.904;2023-09-19T09:06:23;5.80;;;1.50;;
46391;SDS011;32098;49.448;7.904;2023-09-19T09:08:52;5.50;;;1.58;;
46391;SDS011;32098;49.448;7.904;2023-09-19T09:11:19;6.15;;;1.92;;
46391;SDS011;32098;49.448;7.904;2023-09-19T09:13:46;4.72;;;1.40;;
46391;SDS011;32098;49.448;7.904;2023-09-19T09:16:13;7.55;;;2.03;;
46391;SDS011;32098;49.448;7.904;2023-09-19T09:18:43;8.00;;;1.83;;
46391;SDS011;32098;49.448;7.904;2023-09-19T09:21:11;4.20;;;1.63;;
46391;SDS011;32098;49.448;7.904;2023-09-19T09:23:39;5.97;;;1.55;;
46391;SDS011;32098;49.448;7.904;2023-09-19T09:26:06;4.82;;;1.70;;
46391;SDS011;32098;49.448;7.904;2023-09-19T09:28:35;6.90;;;1.83;;
46391;SDS011;32098;49.448;7.904;2023-09-19T09:31:05;6.95;;;1.80;;
46391;SDS011;32098;49.448;7.904;2023-09-19T09:33:35;6.15;;;1.88;;
46391;SDS011;32098;49.448;7.904;2023-09-19T09:36:03;4.63;;;1.55;;
46391;SDS011;32098;49.448;7.904;2023-09-19T09:41:12;4.22;;;1.30;;
46391;SDS011;32098;49.448;7.904;2023-09-19T09:43:42;6.70;;;1.83;;
46391;SDS011;32098;49.448;7.904;2023-09-19T09:46:15;4.70;;;1.67;;
46391;SDS011;32098;49.448;7.904;2023-09-19T09:48:59;8.20;;;1.70;;
46391;SDS011;32098;49.448;7.904;2023-09-19T09:51:48;8.20;;;1.90;;
46391;SDS011;32098;49.448;7.904;2023-09-19T09:54:29;5.57;;;1.73;;
46391;SDS011;32098;49.448;7.904;2023-09-19T09:57:06;6.65;;;1.65;;
46391;SDS011;32098;49.448;7.904;2023-09-19T09:59:44;3.53;;;1.70;;
46391;SDS011;32098;49.448;7.904;2023-09-19T10:02:13;5.85;;;1.98;;
46391;SDS011;32098;49.448;7.904;2023-09-19T10:04:46;3.53;;;1.60;;
46391;SDS011;32098;49.448;7.904;2023-09-19T10:07:32;6.38;;;1.50;;
46391;SDS011;32098;49.448;7.904;2023-09-19T10:10:00;5.60;;;1.55;;
46391;SDS011;32098;49.448;7.904;2023-09-19T10:12:38;3.67;;;1.60;;
46391;SDS011;32098;49.448;7.904;2023-09-19T10:15:08;3.38;;;1.40;;
46391;SDS011;32098;49.448;7.904;2023-09-19T10:17:37;5.10;;;1.67;;
46391;SDS011;32098;49.448;7.904;2023-09-19T10:20:11;3.60;;;1.55;;
46391;SDS011;32098;49.448;7.904;2023-09-19T10:22:51;6.03;;;1.80;;
46391;SDS011;32098;49.448;7.904;2023-09-19T10:25:25;4.75;;;1.70;;
46391;SDS011;32098;49.448;7.904;2023-09-19T10:27:52;6.97;;;2.05;;
46391;SDS011;32098;49.448;7.904;2023-09-19T10:30:22;5.32;;;1.80;;
46391;SDS011;32098;49.448;7.904;2023-09-19T10:32:53;3.80;;;1.50;;
46391;SDS011;32098;49.448;7.904;2023-09-19T10:35:26;4.55;;;1.83;;
46391;SDS011;32098;49.448;7.904;2023-09-19T10:37:57;4.97;;;1.60;;
46391;SDS011;32098;49.448;7.904;2023-09-19T10:40:27;3.85;;;1.95;;
46391;SDS011;32098;49.448;7.904;2023-09-19T10:43:00;6.43;;;1.90;;
46391;SDS011;32098;49.448;7.904;2023-09-19T10:45:32;4.78;;;1.80;;
46391;SDS011;32098;49.448;7.904;2023-09-19T10:48:00;5.53;;;1.92;;
46391;SDS011;32098;49.448;7.904;2023-09-19T10:53:27;3.78;;;1.42;;
46391;SDS011;32098;49.448;7.904;2023-09-19T10:55:59;3.50;;;1.60;;
46391;SDS011;32098;49.448;7.904;2023-09-19T10:58:30;2.88;;;1.25;;
46391;SDS011;32098;49.448;7.904;2023-09-19T11:01:04;3.33;;;1.50;;
46391;SDS011;32098;49.448;7.904;2023-09-19T11:03:41;5.05;;;1.40;;
46391;SDS011;32098;49.448;7.904;2023-09-19T11:06:15;2.92;;;0.75;;
46391;SDS011;32098;49.448;7.904;2023-09-19T11:14:13;3.53;;;1.20;;
46391;SDS011;32098;49.448;7.904;2023-09-19T11:17:21;3.92;;;1.30;;
46391;SDS011;32098;49.448;7.904;2023-09-19T11:30:45;4.18;;;1.38;;
46391;SDS011;32098;49.448;7.904;2023-09-19T11:33:24;2.92;;;1.30;;
46391;SDS011;32098;49.448;7.904;2023-09-19T11:46:27;4.00;;;1.45;;
46391;SDS011;32098;49.448;7.904;2023-09-19T11:48:54;2.85;;;1.13;;
46391;SDS011;32098;49.448;7.904;2023-09-19T11:51:37;3.35;;;1.00;;
46391;SDS011;32098;49.448;7.904;2023-09-19T11:54:12;4.25;;;1.45;;
46391;SDS011;32098;49.448;7.904;2023-09-19T11:56:45;2.08;;;1.17;;
46391;SDS011;32098;49.448;7.904;2023-09-19T11:59:19;3.53;;;1.08;;
46391;SDS011;32098;49.448;7.904;2023-09-19T12:01:53;2.97;;;1.23;;
46391;SDS011;32098;49.448;7.904;2023-09-19T12:04:38;2.38;;;1.20;;
46391;SDS011;32098;49.448;7.904;2023-09-19T12:07:09;2.80;;;1.15;;
46391;SDS011;32098;49.448;7.904;2023-09-19T12:09:44;4.18;;;1.23;;
46391;SDS011;32098;49.448;7.904;2023-09-19T12:12:23;5.53;;;1.50;;
46391;SDS011;32098;49.448;7.904;2023-09-19T12:14:53;3.15;;;1.13;;
46391;SDS011;32098;49.448;7.904;2023-09-19T12:17:21;3.00;;;1.33;;
46391;SDS011;32098;49.448;7.904;2023-09-19T12:19:51;3.15;;;1.25;;
46391;SDS011;32098;49.448;7.904;2023-09-19T12:22:18;3.22;;;1.20;;
46391;SDS011;32098;49.448;7.904;2023-09-19T12:24:46;5.35;;;1.10;;
46391;SDS011;32098;49.448;7.904;2023-09-19T12:27:14;1.92;;;1.20;;
46391;SDS011;32098;49.448;7.904;2023-09-19T12:29:48;2.42;;;1.00;;
46391;SDS011;32098;49.448;7.904;2023-09-19T12:32:37;3.70;;;1.50;;
46391;SDS011;32098;49.448;7.904;2023-09-19T12:35:06;4.22;;;1.17;;
46391;SDS011;32098;49.448;7.904;2023-09-19T12:37:37;2.47;;;1.10;;
46391;SDS011;32098;49.448;7.904;2023-09-19T12:40:12;4.28;;;1.33;;
46391;SDS011;32098;49.448;7.904;2023-09-19T12:42:48;2.03;;;0.90;;
46391;SDS011;32098;49.448;7.904;2023-09-19T12:45:16;3.85;;;1.13;;
46391;SDS011;32098;49.448;7.904;2023-09-19T12:51:13;2.60;;;0.85;;
46391;SDS011;32098;49.448;7.904;2023-09-19T12:53:42;2.05;;;1.10;;
46391;SDS011;32098;49.448;7.904;2023-09-19T12:56:15;2.25;;;1.25;;
46391;SDS011;32098;49.448;7.904;2023-09-19T12:59:02;4.95;;;1.25;;
46391;SDS011;32098;49.448;7.904;2023-09-19T13:01:29;3.13;;;1.00;;
46391;SDS011;32098;49.448;7.904;2023-09-19T13:06:46;3.58;;;1.10;;
46391;SDS011;32098;49.448;7.904;2023-09-19T13:09:16;4.43;;;1.20;;
46391;SDS011;32098;49.448;7.904;2023-09-19T13:11:43;3.15;;;1.10;;
46391;SDS011;32098;49.448;7.904;2023-09-19T13:14:15;2.30;;;1.20;;
46391;SDS011;32098;49.448;7.904;2023-09-19T13:19:36;3.13;;;1.20;;
46391;SDS011;32098;49.448;7.904;2023-09-19T13:22:04;2.22;;;1.17;;
46391;SDS011;32098;49.448;7.904;2023-09-19T13:24:30;2.38;;;1.10;;
46391;SDS011;32098;49.448;7.904;2023-09-19T13:26:59;2.55;;;0.90;;
46391;SDS011;32098;49.448;7.904;2023-09-19T13:29:26;2.05;;;0.98;;
46391;SDS011;32098;49.448;7.904;2023-09-19T13:31:54;2.40;;;1.15;;
46391;SDS011;32098;49.448;7.904;2023-09-19T13:34:21;2.50;;;1.00;;
46391;SDS011;32098;49.448;7.904;2023-09-19T13:36:48;2.92;;;1.15;;
46391;SDS011;32098;49.448;7.904;2023-09-19T13:39:15;2.53;;;1.20;;
46391;SDS011;32098;49.448;7.904;2023-09-19T13:41:47;3.33;;;0.93;;
46391;SDS011;32098;49.448;7.904;2023-09-19T13:44:14;3.17;;;1.00;;
46391;SDS011;32098;49.448;7.904;2023-09-19T13:46:41;3.53;;;1.15;;
46391;SDS011;32098;49.448;7.904;2023-09-19T13:49:12;3.03;;;1.05;;
46391;SDS011;32098;49.448;7.904;2023-09-19T13:51:39;2.63;;;1.20;;
46391;SDS011;32098;49.448;7.904;2023-09-19T13:54:09;4.57;;;1.10;;
46391;SDS011;32098;49.448;7.904;2023-09-19T13:56:38;3.17;;;0.90;;
46391;SDS011;32098;49.448;7.904;2023-09-19T13:59:05;3.10;;;1.05;;
46391;SDS011;32098;49.448;7.904;2023-09-19T14:01:32;2.22;;;0.90;;
46391;SDS011;32098;49.448;7.904;2023-09-19T14:03:58;3.25;;;1.17;;
46391;SDS011;32098;49.448;7.904;2023-09-19T14:06:25;4.65;;;1.05;;
46391;SDS011;32098;49.448;7.904;2023-09-19T14:08:52;2.85;;;1.10;;
46391;SDS011;32098;49.448;7.904;2023-09-19T14:11:19;1.45;;;1.10;;
46391;SDS011;32098;49.448;7.904;2023-09-19T14:13:46;3.78;;;1.30;;
46391;SDS011;32098;49.448;7.904;2023-09-19T14:16:15;4.25;;;1.15;;
46391;SDS011;32098;49.448;7.904;2023-09-19T14:18:44;2.22;;;1.02;;
46391;SDS011;32098;49.448;7.904;2023-09-19T14:21:12;3.55;;;1.20;;
46391;SDS011;32098;49.448;7.904;2023-09-19T14:23:40;1.70;;;1.05;;
46391;SDS011;32098;49.448;7.904;2023-09-19T14:26:12;3.60;;;1.02;;
46391;SDS011;32098;49.448;7.904;2023-09-19T14:28:38;1.75;;;0.90;;
46391;SDS011;32098;49.448;7.904;2023-09-19T14:31:06;2.47;;;1.20;;
46391;SDS011;32098;49.448;7.904;2023-09-19T14:33:37;1.67;;;0.90;;
46391;SDS011;32098;49.448;7.904;2023-09-19T14:36:05;3.47;;;1.20;;
46391;SDS011;32098;49.448;7.904;2023-09-19T14:38:33;2.83;;;1.00;;
46391;SDS011;32098;49.448;7.904;2023-09-19T14:41:03;2.58;;;1.02;;
46391;SDS011;32098;49.448;7.904;2023-09-19T14:43:32;1.05;;;0.82;;
46391;SDS011;32098;49.448;7.904;2023-09-19T14:46:05;2.97;;;1.00;;
46391;SDS011;32098;49.448;7.904;2023-09-19T14:48:36;3.05;;;0.77;;
46391;SDS011;32098;49.448;7.904;2023-09-19T14:51:05;3.17;;;1.05;;
46391;SDS011;32098;49.448;7.904;2023-09-19T14:53:35;4.28;;;1.02;;
46391;SDS011;32098;49.448;7.904;2023-09-19T14:56:04;4.57;;;1.20;;
46391;SDS011;32098;49.448;7.904;2023-09-19T14:58:31;2.42;;;1.00;;
46391;SDS011;32098;49.448;7.904;2023-09-19T15:01:05;2.75;;;0.70;;
46391;SDS011;32098;49.448;7.904;2023-09-19T15:03:34;4.18;;;1.30;;
46391;SDS011;32098;49.448;7.904;2023-09-19T15:06:03;2.20;;;0.93;;
46391;SDS011;32098;49.448;7.904;2023-09-19T15:08:34;1.85;;;1.10;;
46391;SDS011;32098;49.448;7.904;2023-09-19T15:11:05;1.83;;;0.82;;
46391;SDS011;32098;49.448;7.904;2023-09-19T15:13:32;2.03;;;0.77;;
46391;SDS011;32098;49.448;7.904;2023-09-19T15:16:03;2.58;;;1.00;;
46391;SDS011;32098;49.448;7.904;2023-09-19T15:18:35;2.58;;;0.88;;
46391;SDS011;32098;49.448;7.904;2023-09-19T15:21:09;3.85;;;0.90;;
46391;SDS011;32098;49.448;7.904;2023-09-19T15:23:37;4.22;;;0.90;;
46391;SDS011;32098;49.448;7.904;2023-09-19T15:26:05;2.47;;;1.17;;
46391;SDS011;32098;49.448;7.904;2023-09-19T15:28:33;5.57;;;0.90;;
46391;SDS011;32098;49.448;7.904;2023-09-19T15:31:02;3.67;;;0.90;;
46391;SDS011;32098;49.448;7.904;2023-09-19T15:33:30;1.50;;;1.10;;
46391;SDS011;32098;49.448;7.904;2023-09-19T15:36:31;2.40;;;0.70;;
46391;SDS011;32098;49.448;7.904;2023-09-19T15:38:57;2.03;;;0.90;;
46391;SDS011;32098;49.448;7.904;2023-09-19T15:41:24;2.33;;;1.00;;
46391;SDS011;32098;49.448;7.904;2023-09-19T15:43:51;1.70;;;0.90;;
46391;SDS011;32098;49.448;7.904;2023-09-19T15:46:18;2.60;;;1.10;;
46391;SDS011;32098;49.448;7.904;2023-09-19T15:48:45;2.15;;;0.75;;
46391;SDS011;32098;49.448;7.904;2023-09-19T15:51:12;2.25;;;0.70;;
46391;SDS011;32098;49.448;7.904;2023-09-19T15:53:42;2.53;;;1.00;;
46391;SDS011;32098;49.448;7.904;2023-09-19T15:56:18;1.45;;;0.68;;
46391;SDS011;32098;49.448;7.904;2023-09-19T15:58:47;2.50;;;0.75;;
46391;SDS011;32098;49.448;7.904;2023-09-19T16:01:15;2.65;;;1.05;;
46391;SDS011;32098;49.448;7.904;2023-09-19T16:03:45;2.42;;;0.98;;